Wetterdaten: Sonntag, 26.04.2015
Datum Zeit Temp. A. Feuchte A. Luftdruck Regen Wind Richtung Richtung Sonnenschein ET UV Solar Taupunkt Windchill Windben Empfang
26.04.2015 00:00 14,9 C 63 % 1010,5 hPa 0,0 l/m 11,5 km/h (2 Bft) W-NW 287 0 min 0,000 mm 0,0 UV-I 0 W/m 7,9 C 12,4 C 15,8 km/h (3 Bft) 0,00 %
26.04.2015 00:15 14,7 C 64 % 1010,6 hPa 0,0 l/m 4,0 km/h (1 Bft) W-SW 256 0 min 0,000 mm 0,0 UV-I 0 W/m 8,0 C 14,7 C 7,9 km/h (2 Bft) 0,00 %
26.04.2015 00:30 14,4 C 68 % 1010,9 hPa 0,0 l/m 1,4 km/h (1 Bft) S-SW 196 0 min 0,000 mm 0,0 UV-I 0 W/m 8,6 C 14,4 C 4,0 km/h (1 Bft) 0,00 %
26.04.2015 00:45 14,1 C 72 % 1010,8 hPa 0,0 l/m 0,7 km/h (0 Bft) SW 217 0 min 0,000 mm 0,0 UV-I 0 W/m 9,1 C 14,1 C 4,0 km/h (1 Bft) 0,00 %
26.04.2015 01:00 13,8 C 73 % 1010,7 hPa 0,0 l/m 0,0 km/h (0 Bft) S 187 0 min 0,000 mm 0,0 UV-I 0 W/m 9,0 C 13,8 C 0,0 km/h (0 Bft) 0,00 %
26.04.2015 01:15 13,6 C 74 % 1010,9 hPa 0,0 l/m 0,0 km/h (0 Bft) S-SW 211 0 min 0,000 mm 0,0 UV-I 0 W/m 9,1 C 13,6 C 0,0 km/h (0 Bft) 0,00 %
26.04.2015 01:30 13,4 C 77 % 1011,0 hPa 0,0 l/m 3,2 km/h (1 Bft) W-SW 252 0 min 0,000 mm 0,0 UV-I 0 W/m 9,5 C 13,4 C 7,9 km/h (2 Bft) 0,00 %
26.04.2015 01:45 13,1 C 80 % 1010,7 hPa 0,0 l/m 0,0 km/h (0 Bft) S-SW 199 0 min 0,000 mm 0,0 UV-I 0 W/m 9,7 C 13,1 C 0,0 km/h (0 Bft) 0,00 %
26.04.2015 02:00 12,9 C 82 % 1010,7 hPa 0,0 l/m 0,0 km/h (0 Bft) S 181 0 min 0,000 mm 0,0 UV-I 0 W/m 9,9 C 12,9 C 0,0 km/h (0 Bft) 0,00 %
26.04.2015 02:15 12,6 C 83 % 1010,7 hPa 0,0 l/m 0,0 km/h (0 Bft) S-SW 192 0 min 0,000 mm 0,0 UV-I 0 W/m 9,8 C 12,6 C 0,0 km/h (0 Bft) 0,00 %
26.04.2015 02:30 12,4 C 84 % 1010,8 hPa 0,0 l/m 0,0 km/h (0 Bft) S-SW 202 0 min 0,000 mm 0,0 UV-I 0 W/m 9,8 C 12,4 C 0,0 km/h (0 Bft) 0,00 %
26.04.2015 02:45 12,3 C 84 % 1010,5 hPa 0,0 l/m 0,0 km/h (0 Bft) S 181 0 min 0,000 mm 0,0 UV-I 0 W/m 9,7 C 12,3 C 0,0 km/h (0 Bft) 0,00 %
26.04.2015 03:00 12,2 C 85 % 1010,6 hPa 0,0 l/m 0,0 km/h (0 Bft) S-SW 203 0 min 0,000 mm 0,0 UV-I 0 W/m 9,8 C 12,2 C 0,0 km/h (0 Bft) 0,00 %
26.04.2015 03:15 12,1 C 85 % 1010,8 hPa 0,0 l/m 0,0 km/h (0 Bft) S-SW 203 0 min 0,000 mm 0,0 UV-I 0 W/m 9,7 C 12,1 C 0,0 km/h (0 Bft) 0,00 %
26.04.2015 03:30 12,0 C 86 % 1010,8 hPa 0,0 l/m 0,0 km/h (0 Bft) S 180 0 min 0,000 mm 0,0 UV-I 0 W/m 9,7 C 12,0 C 0,0 km/h (0 Bft) 0,00 %
26.04.2015 03:45 11,8 C 86 % 1010,6 hPa 0,0 l/m 0,0 km/h (0 Bft) S 182 0 min 0,000 mm 0,0 UV-I 0 W/m 9,5 C 11,8 C 0,0 km/h (0 Bft) 0,00 %
26.04.2015 04:00 11,8 C 86 % 1010,6 hPa 0,0 l/m 0,0 km/h (0 Bft) S 184 0 min 0,000 mm 0,0 UV-I 0 W/m 9,5 C 11,8 C 0,0 km/h (0 Bft) 0,00 %
26.04.2015 04:15 11,9 C 85 % 1010,2 hPa 0,0 l/m 0,0 km/h (0 Bft) S 186 0 min 0,000 mm 0,0 UV-I 0 W/m 9,5 C 11,9 C 0,0 km/h (0 Bft) 0,00 %
26.04.2015 04:30 11,9 C 85 % 1010,5 hPa 0,0 l/m 0,0 km/h (0 Bft) S-SW 203 0 min 0,000 mm 0,0 UV-I 0 W/m 9,5 C 11,9 C 0,0 km/h (0 Bft) 0,00 %
26.04.2015 04:45 11,7 C 87 % 1010,4 hPa 0,0 l/m 0,0 km/h (0 Bft) S 188 0 min 0,000 mm 0,0 UV-I 0 W/m 9,6 C 11,7 C 0,0 km/h (0 Bft) 0,00 %
26.04.2015 05:00 11,5 C 88 % 1010,6 hPa 0,0 l/m 0,0 km/h (0 Bft) S-SW 211 0 min 0,000 mm 0,0 UV-I 0 W/m 9,6 C 11,5 C 0,0 km/h (0 Bft) 0,00 %
26.04.2015 05:15 11,8 C 86 % 1010,8 hPa 0,0 l/m 1,8 km/h (1 Bft) SW 217 0 min 0,000 mm 0,0 UV-I 0 W/m 9,5 C 11,8 C 4,0 km/h (1 Bft) 0,00 %
26.04.2015 05:30 12,0 C 85 % 1011,0 hPa 0,0 l/m 0,4 km/h (0 Bft) W-SW 251 0 min 0,000 mm 0,0 UV-I 0 W/m 9,6 C 12,0 C 4,0 km/h (1 Bft) 0,00 %
26.04.2015 05:45 12,0 C 85 % 1011,0 hPa 0,0 l/m 2,2 km/h (1 Bft) W-SW 256 0 min 0,000 mm 0,0 UV-I 0 W/m 9,6 C 12,0 C 4,0 km/h (1 Bft) 0,00 %
26.04.2015 06:00 12,3 C 82 % 1011,3 hPa 0,0 l/m 0,0 km/h (0 Bft) SW 216 0 min 0,000 mm 0,0 UV-I 0 W/m 9,3 C 12,3 C 0,0 km/h (0 Bft) 0,00 %
26.04.2015 06:15 12,4 C 83 % 1011,0 hPa 0,0 l/m 0,4 km/h (0 Bft) W-SW 248 0 min 0,000 mm 0,0 UV-I 0 W/m 9,6 C 12,4 C 4,0 km/h (1 Bft) 0,00 %
26.04.2015 06:30 12,4 C 83 % 1011,3 hPa 0,0 l/m 0,0 km/h (0 Bft) S 185 0 min 0,000 mm 0,0 UV-I 8 W/m 9,6 C 12,4 C 0,0 km/h (0 Bft) 0,00 %
26.04.2015 06:45 12,4 C 84 % 1011,2 hPa 0,0 l/m 0,0 km/h (0 Bft) SW 236 0 min 0,000 mm 0,0 UV-I 20 W/m 9,8 C 12,4 C 0,0 km/h (0 Bft) 0,00 %
26.04.2015 07:00 12,5 C 83 % 1011,3 hPa 0,0 l/m 0,0 km/h (0 Bft) S 178 0 min 0,000 mm 0,0 UV-I 35 W/m 9,7 C 12,5 C 0,0 km/h (0 Bft) 0,00 %
26.04.2015 07:15 12,6 C 83 % 1011,4 hPa 0,0 l/m 0,0 km/h (0 Bft) S 186 0 min 0,000 mm 0,0 UV-I 27 W/m 9,8 C 12,6 C 0,0 km/h (0 Bft) 0,00 %
26.04.2015 07:30 12,7 C 83 % 1011,1 hPa 0,0 l/m 0,0 km/h (0 Bft) S 184 0 min 0,000 mm 1,0 UV-I 43 W/m 9,9 C 12,7 C 0,0 km/h (0 Bft) 0,00 %
26.04.2015 07:45 13,1 C 83 % 1011,5 hPa 0,0 l/m 0,0 km/h (0 Bft) S 180 0 min 0,000 mm 1,0 UV-I 85 W/m 10,3 C 13,1 C 0,0 km/h (0 Bft) 0,00 %
26.04.2015 08:00 13,2 C 81 % 1011,3 hPa 0,0 l/m 0,0 km/h (0 Bft) S 181 0 min 0,000 mm 1,0 UV-I 73 W/m 10,0 C 13,2 C 0,0 km/h (0 Bft) 0,00 %
26.04.2015 08:15 13,2 C 83 % 1011,3 hPa 0,0 l/m 0,0 km/h (0 Bft) S 175 0 min 0,000 mm 1,0 UV-I 68 W/m 10,4 C 13,2 C 0,0 km/h (0 Bft) 0,00 %
26.04.2015 08:30 13,2 C 81 % 1011,1 hPa 0,0 l/m 0,0 km/h (0 Bft) S 182 0 min 0,000 mm 1,0 UV-I 138 W/m 10,0 C 13,2 C 0,0 km/h (0 Bft) 0,00 %
26.04.2015 08:45 14,0 C 78 % 1010,8 hPa 0,0 l/m 0,0 km/h (0 Bft) S 183 0 min 0,000 mm 2,0 UV-I 160 W/m 10,2 C 14,0 C 0,0 km/h (0 Bft) 0,00 %
26.04.2015 09:00 14,7 C 73 % 1010,9 hPa 0,0 l/m 0,0 km/h (0 Bft) SW 217 15 min 0,000 mm 1,0 UV-I 290 W/m 9,9 C 14,7 C 0,0 km/h (0 Bft) 0,00 %
26.04.2015 09:15 14,9 C 72 % 1010,6 hPa 0,0 l/m 1,4 km/h (1 Bft) W-SW 250 0 min 0,000 mm 1,0 UV-I 215 W/m 9,9 C 14,9 C 4,0 km/h (1 Bft) 0,00 %
26.04.2015 09:30 14,8 C 71 % 1010,9 hPa 0,0 l/m 0,0 km/h (0 Bft) S 191 0 min 0,000 mm 1,0 UV-I 198 W/m 9,6 C 14,8 C 0,0 km/h (0 Bft) 0,00 %
26.04.2015 09:45 14,6 C 71 % 1010,6 hPa 0,0 l/m 0,4 km/h (0 Bft) W-SW 255 0 min 0,000 mm 2,0 UV-I 163 W/m 9,4 C 14,6 C 4,0 km/h (1 Bft) 0,00 %
26.04.2015 10:00 15,4 C 67 % 1010,5 hPa 0,0 l/m 0,0 km/h (0 Bft) S 175 0 min 0,000 mm 3,0 UV-I 253 W/m 9,3 C 15,4 C 0,0 km/h (0 Bft) 0,00 %
26.04.2015 10:15 16,1 C 65 % 1010,1 hPa 0,0 l/m 0,7 km/h (0 Bft) W-SW 253 0 min 0,000 mm 2,0 UV-I 292 W/m 9,5 C 16,1 C 4,0 km/h (1 Bft) 0,00 %
26.04.2015 10:30 16,0 C 66 % 1010,4 hPa 0,0 l/m 2,9 km/h (1 Bft) W 278 0 min 0,000 mm 2,0 UV-I 272 W/m 9,7 C 16,0 C 4,0 km/h (1 Bft) 0,00 %
26.04.2015 10:45 15,8 C 65 % 1010,3 hPa 0,0 l/m 0,0 km/h (0 Bft) SW 214 0 min 0,000 mm 2,0 UV-I 262 W/m 9,2 C 15,8 C 0,0 km/h (0 Bft) 0,00 %
26.04.2015 11:00 16,5 C 60 % 1010,1 hPa 0,0 l/m 0,0 km/h (0 Bft) S-SW 203 0 min 0,000 mm 5,0 UV-I 345 W/m 8,7 C 16,5 C 0,0 km/h (0 Bft) 0,00 %
26.04.2015 11:15 18,5 C 54 % 1009,8 hPa 0,0 l/m 1,4 km/h (1 Bft) W-SW 256 15 min 0,000 mm 4,0 UV-I 614 W/m 9,0 C 18,5 C 4,0 km/h (1 Bft) 0,00 %
26.04.2015 11:30 18,3 C 57 % 1009,5 hPa 0,0 l/m 0,0 km/h (0 Bft) SW 223 15 min 0,000 mm 3,0 UV-I 697 W/m 9,6 C 18,3 C 0,0 km/h (0 Bft) 0,00 %
26.04.2015 11:45 19,2 C 53 % 1009,3 hPa 0,0 l/m 0,0 km/h (0 Bft) S 183 0 min 0,000 mm 6,0 UV-I 381 W/m 9,4 C 19,2 C 0,0 km/h (0 Bft) 0,00 %
26.04.2015 12:00 20,6 C 50 % 1008,8 hPa 0,0 l/m 4,3 km/h (1 Bft) W-SW 245 15 min 0,000 mm 3,0 UV-I 924 W/m 9,8 C 20,6 C 7,9 km/h (2 Bft) 0,00 %
26.04.2015 12:15 18,0 C 57 % 1009,1 hPa 0,0 l/m 0,0 km/h (0 Bft) N-NW 337 0 min 0,000 mm 5,0 UV-I 437 W/m 9,4 C 18,0 C 0,0 km/h (0 Bft) 0,00 %
26.04.2015 12:30 19,4 C 52 % 1008,7 hPa 0,0 l/m 5,8 km/h (2 Bft) NW 322 15 min 0,000 mm 6,0 UV-I 968 W/m 9,3 C 19,4 C 7,9 km/h (2 Bft) 0,00 %
26.04.2015 12:45 19,1 C 52 % 1008,4 hPa 0,0 l/m 0,0 km/h (0 Bft) S 178 0 min 0,000 mm 6,0 UV-I 223 W/m 9,0 C 19,1 C 0,0 km/h (0 Bft) 0,00 %
26.04.2015 13:00 20,2 C 49 % 1007,9 hPa 0,0 l/m 0,0 km/h (0 Bft) S 178 15 min 0,000 mm 6,0 UV-I 797 W/m 9,1 C 20,2 C 0,0 km/h (0 Bft) 0,00 %
26.04.2015 13:15 20,9 C 47 % 1007,8 hPa 0,0 l/m 4,0 km/h (1 Bft) W 276 15 min 0,000 mm 6,0 UV-I 817 W/m 9,2 C 20,9 C 7,9 km/h (2 Bft) 0,00 %
26.04.2015 13:30 21,0 C 46 % 1007,4 hPa 0,0 l/m 0,7 km/h (0 Bft) SW 219 15 min 0,000 mm 6,0 UV-I 824 W/m 8,9 C 21,0 C 4,0 km/h (1 Bft) 0,00 %
26.04.2015 13:45 20,1 C 48 % 1007,2 hPa 0,0 l/m 1,8 km/h (1 Bft) O-NO 66 15 min 0,000 mm 5,0 UV-I 877 W/m 8,7 C 20,1 C 4,0 km/h (1 Bft) 0,00 %
26.04.2015 14:00 20,3 C 47 % 1007,1 hPa 0,0 l/m 9,0 km/h (2 Bft) S 174 15 min 0,000 mm 3,0 UV-I 836 W/m 8,6 C 19,3 C 15,8 km/h (3 Bft) 0,00 %
26.04.2015 14:15 19,7 C 48 % 1006,9 hPa 0,0 l/m 0,0 km/h (0 Bft) W-SW 241 0 min 0,000 mm 6,0 UV-I 405 W/m 8,4 C 19,7 C 0,0 km/h (0 Bft) 0,00 %
26.04.2015 14:30 20,9 C 44 % 1006,4 hPa 0,0 l/m 2,2 km/h (1 Bft) S-SW 209 15 min 0,000 mm 2,0 UV-I 913 W/m 8,2 C 20,9 C 4,0 km/h (1 Bft) 0,00 %
26.04.2015 14:45 20,0 C 46 % 1006,4 hPa 0,0 l/m 9,7 km/h (2 Bft) W-NW 283 0 min 0,000 mm 3,0 UV-I 214 W/m 8,0 C 18,7 C 11,9 km/h (2 Bft) 0,00 %
26.04.2015 15:00 20,5 C 46 % 1006,2 hPa 0,0 l/m 3,2 km/h (1 Bft) NW 323 0 min 0,000 mm 2,0 UV-I 267 W/m 8,5 C 20,5 C 4,0 km/h (1 Bft) 0,00 %
26.04.2015 15:15 21,3 C 42 % 1005,8 hPa 0,0 l/m 0,0 km/h (0 Bft) SW 224 15 min 0,000 mm 2,0 UV-I 850 W/m 7,9 C 21,3 C 0,0 km/h (0 Bft) 0,00 %
26.04.2015 15:30 21,8 C 38 % 1005,8 hPa 0,0 l/m 0,0 km/h (0 Bft) S-SW 203 15 min 0,000 mm 2,0 UV-I 851 W/m 6,8 C 21,8 C 0,0 km/h (0 Bft) 0,00 %
26.04.2015 15:45 21,4 C 41 % 1005,5 hPa 0,0 l/m 0,4 km/h (0 Bft) N-NW 332 15 min 0,000 mm 2,0 UV-I 855 W/m 7,6 C 21,4 C 4,0 km/h (1 Bft) 0,00 %
26.04.2015 16:00 20,5 C 43 % 1005,4 hPa 0,0 l/m 0,0 km/h (0 Bft) SO 140 0 min 0,000 mm 2,0 UV-I 236 W/m 7,5 C 20,5 C 0,0 km/h (0 Bft) 0,00 %
26.04.2015 16:15 20,8 C 42 % 1005,3 hPa 0,0 l/m 3,2 km/h (1 Bft) SO 125 0 min 0,000 mm 2,0 UV-I 247 W/m 7,4 C 20,8 C 7,9 km/h (2 Bft) 0,00 %
26.04.2015 16:30 21,8 C 40 % 1005,1 hPa 0,0 l/m 2,2 km/h (1 Bft) N 1 15 min 0,000 mm 2,0 UV-I 777 W/m 7,6 C 21,8 C 4,0 km/h (1 Bft) 0,00 %
26.04.2015 16:45 21,2 C 41 % 1004,9 hPa 0,0 l/m 0,0 km/h (0 Bft) S-SO 165 15 min 0,000 mm 2,0 UV-I 653 W/m 7,4 C 21,2 C 0,0 km/h (0 Bft) 0,00 %
26.04.2015 17:00 20,8 C 42 % 1004,8 hPa 0,0 l/m 0,0 km/h (0 Bft) SW 234 15 min 0,000 mm 2,0 UV-I 591 W/m 7,4 C 20,8 C 0,0 km/h (0 Bft) 0,00 %
26.04.2015 17:15 21,5 C 38 % 1004,7 hPa 0,0 l/m 0,0 km/h (0 Bft) SO 131 15 min 0,000 mm 2,0 UV-I 578 W/m 6,6 C 21,5 C 0,0 km/h (0 Bft) 0,00 %
26.04.2015 17:30 21,0 C 41 % 1004,6 hPa 0,0 l/m 0,7 km/h (0 Bft) W-SW 254 15 min 0,000 mm 1,0 UV-I 366 W/m 7,2 C 21,0 C 4,0 km/h (1 Bft) 0,00 %
26.04.2015 17:45 20,6 C 43 % 1004,6 hPa 0,0 l/m 1,4 km/h (1 Bft) SO 127 15 min 0,000 mm 1,0 UV-I 415 W/m 7,6 C 20,6 C 4,0 km/h (1 Bft) 0,00 %
26.04.2015 18:00 20,7 C 42 % 1004,4 hPa 0,0 l/m 0,0 km/h (0 Bft) SO 138 15 min 0,000 mm 1,0 UV-I 359 W/m 7,3 C 20,7 C 0,0 km/h (0 Bft) 0,00 %
26.04.2015 18:15 20,4 C 48 % 1004,3 hPa 0,0 l/m 0,0 km/h (0 Bft) S 188 15 min 0,000 mm 1,0 UV-I 200 W/m 9,0 C 20,4 C 0,0 km/h (0 Bft) 0,00 %
26.04.2015 18:30 19,6 C 49 % 1004,3 hPa 0,0 l/m 0,0 km/h (0 Bft) S 184 15 min 0,000 mm 1,0 UV-I 193 W/m 8,6 C 19,6 C 0,0 km/h (0 Bft) 0,00 %
26.04.2015 18:45 19,4 C 50 % 1004,2 hPa 0,0 l/m 0,0 km/h (0 Bft) O 100 15 min 0,000 mm 1,0 UV-I 138 W/m 8,7 C 19,4 C 0,0 km/h (0 Bft) 0,00 %
26.04.2015 19:00 18,8 C 54 % 1004,4 hPa 0,0 l/m 0,0 km/h (0 Bft) S 173 0 min 0,000 mm 0,0 UV-I 93 W/m 9,3 C 18,8 C 0,0 km/h (0 Bft) 0,00 %
26.04.2015 19:15 18,3 C 54 % 1004,2 hPa 0,0 l/m 0,0 km/h (0 Bft) S-SO 151 0 min 0,000 mm 0,0 UV-I 61 W/m 8,8 C 18,3 C 0,0 km/h (0 Bft) 0,00 %
26.04.2015 19:30 18,1 C 57 % 1004,2 hPa 0,0 l/m 0,0 km/h (0 Bft) SO 142 0 min 0,000 mm 0,0 UV-I 33 W/m 9,4 C 18,1 C 0,0 km/h (0 Bft) 0,00 %
26.04.2015 19:45 17,7 C 57 % 1004,4 hPa 0,0 l/m 0,0 km/h (0 Bft) S-SO 160 0 min 0,000 mm 0,0 UV-I 10 W/m 9,1 C 17,7 C 0,0 km/h (0 Bft) 0,00 %
26.04.2015 20:00 17,2 C 60 % 1004,4 hPa 0,0 l/m 0,0 km/h (0 Bft) S 175 0 min 0,000 mm 0,0 UV-I 3 W/m 9,4 C 17,2 C 0,0 km/h (0 Bft) 0,00 %
26.04.2015 20:15 16,6 C 61 % 1004,2 hPa 0,0 l/m 0,0 km/h (0 Bft) S-SO 148 0 min 0,000 mm 0,0 UV-I 0 W/m 9,0 C 16,6 C 0,0 km/h (0 Bft) 0,00 %
26.04.2015 20:30 16,2 C 62 % 1004,3 hPa 0,0 l/m 0,0 km/h (0 Bft) S 173 0 min 0,000 mm 0,0 UV-I 0 W/m 8,9 C 16,2 C 0,0 km/h (0 Bft) 0,00 %
26.04.2015 20:45 16,1 C 61 % 1004,3 hPa 0,0 l/m 0,0 km/h (0 Bft) S-SO 147 0 min 0,000 mm 0,0 UV-I 0 W/m 8,6 C 16,1 C 0,0 km/h (0 Bft) 0,00 %
26.04.2015 21:00 15,8 C 63 % 1004,4 hPa 0,0 l/m 0,0 km/h (0 Bft) S 173 0 min 0,000 mm 0,0 UV-I 0 W/m 8,8 C 15,8 C 0,0 km/h (0 Bft) 0,00 %
26.04.2015 21:15 15,4 C 65 % 1004,4 hPa 0,0 l/m 0,0 km/h (0 Bft) S-SO 157 0 min 0,000 mm 0,0 UV-I 0 W/m 8,9 C 15,4 C 0,0 km/h (0 Bft) 0,00 %
26.04.2015 21:30 15,2 C 66 % 1004,6 hPa 0,0 l/m 0,0 km/h (0 Bft) S 173 0 min 0,000 mm 0,0 UV-I 0 W/m 8,9 C 15,2 C 0,0 km/h (0 Bft) 0,00 %
26.04.2015 21:45 14,9 C 65 % 1004,4 hPa 0,0 l/m 0,0 km/h (0 Bft) S 173 0 min 0,000 mm 0,0 UV-I 0 W/m 8,4 C 14,9 C 0,0 km/h (0 Bft) 0,00 %
26.04.2015 22:00 15,1 C 64 % 1004,3 hPa 0,0 l/m 0,0 km/h (0 Bft) S 172 0 min 0,000 mm 0,0 UV-I 0 W/m 8,3 C 15,1 C 0,0 km/h (0 Bft) 0,00 %
26.04.2015 22:15 15,3 C 64 % 1003,9 hPa 0,0 l/m 0,0 km/h (0 Bft) O 98 0 min 0,000 mm 0,0 UV-I 0 W/m 8,5 C 15,3 C 0,0 km/h (0 Bft) 0,00 %
26.04.2015 22:30 15,2 C 65 % 1003,9 hPa 0,0 l/m 0,7 km/h (0 Bft) O-SO 122 0 min 0,000 mm 0,0 UV-I 0 W/m 8,7 C 15,2 C 4,0 km/h (1 Bft) 0,00 %
26.04.2015 22:45 14,8 C 66 % 1003,8 hPa 0,0 l/m 0,0 km/h (0 Bft) SO 140 0 min 0,000 mm 0,0 UV-I 0 W/m 8,5 C 14,8 C 0,0 km/h (0 Bft) 0,00 %
26.04.2015 23:00 14,3 C 71 % 1003,5 hPa 0,0 l/m 0,7 km/h (0 Bft) S 173 0 min 0,000 mm 0,0 UV-I 0 W/m 9,1 C 14,3 C 4,0 km/h (1 Bft) 0,00 %
26.04.2015 23:15 13,7 C 73 % 1003,7 hPa 0,0 l/m 0,0 km/h (0 Bft) S 174 0 min 0,000 mm 0,0 UV-I 0 W/m 8,9 C 13,7 C 0,0 km/h (0 Bft) 0,00 %
26.04.2015 23:30 13,2 C 75 % 1003,7 hPa 0,0 l/m 0,0 km/h (0 Bft) S 174 0 min 0,000 mm 0,0 UV-I 0 W/m 8,9 C 13,2 C 0,0 km/h (0 Bft) 0,00 %
26.04.2015 23:45 12,8 C 77 % 1003,6 hPa 0,0 l/m 0,0 km/h (0 Bft) S 173 0 min 0,000 mm 0,0 UV-I 0 W/m 8,9 C 12,8 C 0,0 km/h (0 Bft) 0,00 %
_ Min-Zeit 05:00 15:30 23:00 - 01:00 - - - - - - 17:15 05:00 01:00 00:00
Minimum _ 11,5 C 38 % 1003,5 hPa - 0,0 km/h (0 Bft) - - - - - - 6,6 C 11,5 C 0,0 km/h (0 Bft) 0,00 %
_ Max-Zeit 15:30 05:00 07:45 00:00 00:00 - - 09:00 00:00 11:45 12:30 08:15 15:30 00:00 00:00
Maximum _ 21,8 C 88 % 1011,5 hPa 0,0 l/m 11,5 km/h
W-NW (2 Bft)
- - 15 min 0,000 mm 6,0 UV-I 968 W/m 10,4 C 21,8 C 15,8 km/h
W-NW (3 Bft)
0,00 %
Durchschnitt _ 16,1 C 65 % 1008,0 hPa #0,0 l/m 0,8 km/h (0 Bft) W-SW - #6:00 h #0,000 mm 2,7 UV-I 375 W/m 9,0 C 16,0 C 1,7 km/h (1 Bft) 0,00 %